Time;durP1;ratioP1;P1;durP2;ratioP2;P2;SDS_P1;SDS_P2;PMS_P1;PMS_P2;Temp;Humidity;BMP_temperature;BMP_pressure;BME280_temperature;BME280_humidity;BME280_pressure;Samples;Min_cycle;Max_cycle;Signal;HPM_P1;HPM_P2
2023/03/13 00:01:21;;;;;;;;;;;20.90;79.00;;;;;;5115563;28;19961;-63
2023/03/13 00:03:47;;;;;;;;;;;21.00;79.10;;;;;;5115191;28;19962;-64
2023/03/13 00:06:13;;;;;;;;;;;21.00;79.20;;;;;;5115501;28;19965;-64
2023/03/13 00:08:39;;;;;;;;;;;20.90;79.00;;;;;;5096820;28;19908;-64
2023/03/13 00:11:05;;;;;;;;;;;21.00;79.20;;;;;;5115382;28;19914;-64
2023/03/13 00:13:31;;;;;;;;;;;21.00;79.00;;;;;;5115567;28;19908;-64
2023/03/13 00:16:04;;;;;;;;;;;21.00;79.30;;;;;;5115247;28;19919;-64
2023/03/13 00:18:29;;;;;;;;;;;21.00;79.10;;;;;;5114709;28;19999;-64
2023/03/13 00:21:06;;;;;;;;;;;21.00;78.90;;;;;;5114042;28;20358;-64
2023/03/13 00:23:32;;;;;;;;;;;21.00;79.00;;;;;;5115075;28;20011;-64
2023/03/13 00:25:59;;;;;;;;;;;21.00;79.00;;;;;;5114832;28;19912;-64
2023/03/13 00:28:24;;;;;;;;;;;21.10;79.00;;;;;;5115083;28;19907;-64
2023/03/13 00:30:49;;;;;;;;;;;21.10;78.80;;;;;;5115051;28;19908;-64
2023/03/13 00:33:15;;;;;;;;;;;21.10;78.90;;;;;;5096672;28;19912;-64
2023/03/13 00:35:40;;;;;;;;;;;21.10;78.80;;;;;;5096676;28;19908;-64
2023/03/13 00:38:06;;;;;;;;;;;21.10;78.70;;;;;;5114941;28;19966;-64
2023/03/13 00:40:31;;;;;;;;;;;21.10;78.70;;;;;;5114703;28;19920;-64
2023/03/13 00:42:57;;;;;;;;;;;21.10;78.70;;;;;;5114613;28;19916;-64
2023/03/13 00:45:22;;;;;;;;;;;21.10;78.90;;;;;;5096635;28;19912;-64
2023/03/13 00:47:48;;;;;;;;;;;21.10;78.80;;;;;;5096512;28;19919;-64
2023/03/13 00:50:14;;;;;;;;;;;21.20;78.70;;;;;;5114809;28;19908;-64
2023/03/13 00:52:39;;;;;;;;;;;21.10;78.70;;;;;;5114695;28;19915;-64
2023/03/13 00:55:05;;;;;;;;;;;21.10;78.70;;;;;;5114717;28;19912;-64
2023/03/13 00:57:31;;;;;;;;;;;21.10;78.50;;;;;;5114625;28;20006;-64
2023/03/13 00:59:56;;;;;;;;;;;21.10;78.50;;;;;;5114354;28;19912;-64
2023/03/13 01:02:22;;;;;;;;;;;21.20;79.20;;;;;;5114308;28;19912;-64
2023/03/13 01:04:47;;;;;;;;;;;21.10;78.50;;;;;;5114598;28;20281;-64
2023/03/13 01:07:13;;;;;;;;;;;21.20;78.70;;;;;;5114593;28;20350;-64
2023/03/13 01:09:38;;;;;;;;;;;21.10;78.50;;;;;;5114513;28;19921;-63
2023/03/13 01:12:04;;;;;;;;;;;21.10;78.60;;;;;;5114508;28;19908;-64
2023/03/13 01:14:29;;;;;;;;;;;21.10;78.40;;;;;;5114495;28;20002;-64
2023/03/13 01:16:55;;;;;;;;;;;21.20;78.70;;;;;;5114525;28;19908;-64
2023/03/13 01:19:20;;;;;;;;;;;21.20;78.80;;;;;;5114564;28;20135;-64
2023/03/13 01:21:45;;;;;;;;;;;21.20;78.80;;;;;;5114192;28;19911;-64
2023/03/13 01:24:11;;;;;;;;;;;21.20;78.60;;;;;;5114361;28;20014;-64
2023/03/13 01:26:37;;;;;;;;;;;21.20;78.70;;;;;;5114396;28;20006;-64
2023/03/13 01:29:02;;;;;;;;;;;21.20;78.70;;;;;;5114335;28;19914;-64
2023/03/13 01:31:30;;;;;;;;;;;21.20;78.60;;;;;;5116095;28;19961;-64
2023/03/13 01:33:56;;;;;;;;;;;21.10;78.90;;;;;;5118423;28;19914;-64
2023/03/13 01:36:22;;;;;;;;;;;21.20;78.70;;;;;;5118324;28;20002;-64
2023/03/13 01:38:49;;;;;;;;;;;21.20;78.80;;;;;;5118116;28;20416;-64
2023/03/13 01:41:14;;;;;;;;;;;21.20;78.70;;;;;;5118310;28;19926;-64
2023/03/13 01:43:40;;;;;;;;;;;21.20;78.70;;;;;;5117925;28;19911;-64
2023/03/13 01:46:28;;;;;;;;;;;21.10;78.80;;;;;;5099842;28;19919;-64
2023/03/13 01:49:08;;;;;;;;;;;21.10;78.70;;;;;;5091336;28;19999;-64
2023/03/13 01:51:36;;;;;;;;;;;21.20;78.90;;;;;;5118085;28;19915;-64
2023/03/13 01:54:07;;;;;;;;;;;21.20;78.80;;;;;;5117762;28;19951;-64
2023/03/13 01:56:46;;;;;;;;;;;21.10;78.80;;;;;;5118039;28;19915;-64
2023/03/13 01:59:14;;;;;;;;;;;21.10;78.70;;;;;;5118048;28;19943;-64
2023/03/13 02:01:40;;;;;;;;;;;21.10;78.80;;;;;;5117916;28;19915;-64
2023/03/13 02:04:06;;;;;;;;;;;21.10;79.10;;;;;;5117540;28;19911;-64
2023/03/13 02:06:33;;;;;;;;;;;21.20;78.90;;;;;;5117521;28;20267;-64
2023/03/13 02:09:02;;;;;;;;;;;21.20;78.70;;;;;;5117767;28;19915;-64
2023/03/13 02:11:36;;;;;;;;;;;21.20;78.60;;;;;;5117713;28;19914;-64
2023/03/13 02:14:02;;;;;;;;;;;21.20;78.80;;;;;;5117717;28;19908;-64
2023/03/13 02:16:28;;;;;;;;;;;21.20;78.60;;;;;;5117620;28;19914;-64
2023/03/13 02:18:53;;;;;;;;;;;21.20;78.40;;;;;;5117567;28;20261;-64
2023/03/13 02:21:27;;;;;;;;;;;21.30;78.40;;;;;;5117252;28;19915;-64
2023/03/13 02:24:05;;;;;;;;;;;21.30;78.50;;;;;;5117476;28;19911;-64
2023/03/13 02:26:30;;;;;;;;;;;21.30;78.60;;;;;;5117778;28;20402;-64
2023/03/13 02:28:56;;;;;;;;;;;21.30;78.40;;;;;;5117388;28;19950;-64
2023/03/13 02:31:21;;;;;;;;;;;21.30;78.60;;;;;;5117324;28;20312;-64
2023/03/13 02:33:47;;;;;;;;;;;21.30;78.80;;;;;;5117583;28;19951;-64
2023/03/13 02:36:13;;;;;;;;;;;21.20;78.70;;;;;;5117372;28;19961;-64
2023/03/13 02:38:44;;;;;;;;;;;21.30;78.90;;;;;;5117213;28;19916;-64
2023/03/13 02:41:11;;;;;;;;;;;21.20;78.80;;;;;;5098489;28;19966;-64
2023/03/13 02:43:37;;;;;;;;;;;21.20;79.00;;;;;;5116032;28;20417;-64
2023/03/13 02:46:04;;;;;;;;;;;21.10;78.90;;;;;;5098716;28;19950;-64
2023/03/13 02:48:31;;;;;;;;;;;21.10;79.10;;;;;;5117019;28;20124;-64
2023/03/13 02:50:56;;;;;;;;;;;21.10;79.20;;;;;;5117270;28;19911;-64
2023/03/13 02:53:22;;;;;;;;;;;21.10;78.80;;;;;;5116693;28;20036;-64
2023/03/13 02:55:47;;;;;;;;;;;21.10;79.10;;;;;;5116541;28;19957;-65
2023/03/13 02:58:13;;;;;;;;;;;21.10;78.10;;;;;;5116913;28;19907;-64
2023/03/13 03:00:38;;;;;;;;;;;20.70;74.80;;;;;;5116794;28;19908;-64
2023/03/13 03:03:04;;;;;;;;;;;20.80;78.30;;;;;;5116323;28;20326;-64
2023/03/13 03:05:29;;;;;;;;;;;20.80;78.90;;;;;;5116660;28;19918;-64
2023/03/13 03:07:55;;;;;;;;;;;20.70;79.40;;;;;;5116361;28;19915;-64
2023/03/13 03:10:20;;;;;;;;;;;20.70;79.30;;;;;;5116316;28;19908;-63
2023/03/13 03:12:45;;;;;;;;;;;20.70;79.20;;;;;;5116587;28;20010;-63
2023/03/13 03:15:11;;;;;;;;;;;20.70;79.10;;;;;;5116439;28;19908;-63
2023/03/13 03:17:37;;;;;;;;;;;20.80;79.30;;;;;;5116448;28;19956;-64
2023/03/13 03:20:06;;;;;;;;;;;20.80;79.30;;;;;;5116372;28;19915;-63
2023/03/13 03:22:33;;;;;;;;;;;20.80;79.10;;;;;;5116503;28;19912;-64
2023/03/13 03:24:59;;;;;;;;;;;20.90;79.10;;;;;;5115999;28;20052;-63
2023/03/13 03:27:24;;;;;;;;;;;20.90;79.30;;;;;;5116305;28;19969;-64
2023/03/13 03:29:49;;;;;;;;;;;21.00;78.50;;;;;;5116516;28;19907;-63
2023/03/13 03:32:15;;;;;;;;;;;20.90;79.10;;;;;;5116125;28;19930;-63
2023/03/13 03:34:40;;;;;;;;;;;21.00;78.80;;;;;;5116097;28;20027;-64
2023/03/13 03:37:06;;;;;;;;;;;21.00;78.80;;;;;;5116024;28;19912;-64
2023/03/13 03:39:31;;;;;;;;;;;21.10;78.80;;;;;;5116314;28;19941;-63
2023/03/13 03:41:57;;;;;;;;;;;21.10;78.80;;;;;;5116316;28;19927;-63
2023/03/13 03:44:22;;;;;;;;;;;21.10;78.60;;;;;;5097905;28;19911;-64
2023/03/13 03:46:48;;;;;;;;;;;21.10;78.60;;;;;;5115586;28;19908;-63
2023/03/13 03:49:13;;;;;;;;;;;21.10;78.70;;;;;;5115526;28;19908;-63
2023/03/13 03:51:39;;;;;;;;;;;21.10;78.90;;;;;;5115765;28;19912;-64
2023/03/13 03:54:04;;;;;;;;;;;21.10;78.40;;;;;;5115288;28;19945;-63
2023/03/13 03:56:29;;;;;;;;;;;21.10;78.70;;;;;;5097418;28;19908;-64
2023/03/13 03:58:55;;;;;;;;;;;21.10;78.90;;;;;;5115382;28;20273;-64
2023/03/13 04:01:20;;;;;;;;;;;21.10;78.60;;;;;;5115567;28;19955;-64
2023/03/13 04:03:47;;;;;;;;;;;21.10;78.40;;;;;;5115542;28;19916;-64
2023/03/13 04:06:13;;;;;;;;;;;21.10;78.90;;;;;;5097270;28;20312;-64
2023/03/13 04:08:38;;;;;;;;;;;21.00;78.90;;;;;;5115130;28;19907;-64
2023/03/13 04:11:04;;;;;;;;;;;21.00;78.90;;;;;;5115094;28;19960;-64
2023/03/13 04:13:29;;;;;;;;;;;21.00;79.00;;;;;;5114972;28;20039;-64
2023/03/13 04:15:55;;;;;;;;;;;21.00;79.10;;;;;;5115043;28;19908;-63
2023/03/13 04:18:20;;;;;;;;;;;21.00;79.20;;;;;;5097077;28;19914;-64
2023/03/13 04:20:45;;;;;;;;;;;21.00;79.20;;;;;;5096943;28;20007;-64
2023/03/13 04:23:11;;;;;;;;;;;21.00;78.80;;;;;;5115113;28;19912;-64
2023/03/13 04:25:37;;;;;;;;;;;21.00;78.90;;;;;;5096855;28;20422;-64
2023/03/13 04:28:02;;;;;;;;;;;21.00;79.00;;;;;;5096764;28;19956;-64
2023/03/13 04:30:28;;;;;;;;;;;21.10;79.10;;;;;;5096757;28;19908;-64
2023/03/13 04:32:53;;;;;;;;;;;21.10;79.20;;;;;;5114909;28;20358;-64
2023/03/13 04:35:19;;;;;;;;;;;21.10;78.80;;;;;;5114857;28;19994;-63
2023/03/13 04:37:44;;;;;;;;;;;21.10;78.80;;;;;;5114879;28;20273;-64
2023/03/13 04:40:11;;;;;;;;;;;21.10;78.90;;;;;;5114477;28;20520;-63
2023/03/13 04:42:36;;;;;;;;;;;21.10;78.70;;;;;;5096570;28;19934;-63
2023/03/13 04:45:02;;;;;;;;;;;21.20;78.90;;;;;;5114596;28;19911;-63
2023/03/13 04:47:27;;;;;;;;;;;21.10;78.70;;;;;;5114419;28;19915;-64
2023/03/13 04:49:53;;;;;;;;;;;21.20;78.80;;;;;;5096162;28;20413;-64
2023/03/13 04:52:18;;;;;;;;;;;21.20;78.60;;;;;;5114685;28;19912;-63
2023/03/13 04:54:44;;;;;;;;;;;21.20;78.80;;;;;;5096455;28;20010;-64
2023/03/13 04:57:09;;;;;;;;;;;21.20;78.50;;;;;;5114593;28;19962;-63
2023/03/13 04:59:35;;;;;;;;;;;21.20;78.80;;;;;;5114678;28;19915;-64
2023/03/13 05:02:00;;;;;;;;;;;21.20;78.60;;;;;;5114468;28;19974;-63
2023/03/13 05:04:26;;;;;;;;;;;21.20;78.50;;;;;;5114567;28;19923;-64
2023/03/13 05:06:51;;;;;;;;;;;21.20;78.70;;;;;;5095696;28;19911;-64
2023/03/13 05:09:17;;;;;;;;;;;21.20;78.80;;;;;;5114916;28;19908;-64
2023/03/13 05:11:42;;;;;;;;;;;21.20;78.70;;;;;;5114162;28;19915;-63
2023/03/13 05:14:10;;;;;;;;;;;21.10;79.00;;;;;;5114154;28;20289;-63
2023/03/13 05:16:36;;;;;;;;;;;21.20;78.80;;;;;;5114146;28;20274;-64
2023/03/13 05:19:02;;;;;;;;;;;21.20;79.00;;;;;;5113991;28;20275;-63
2023/03/13 05:21:27;;;;;;;;;;;21.20;79.40;;;;;;5113993;28;19908;-64
2023/03/13 05:23:53;;;;;;;;;;;21.20;78.60;;;;;;5113859;28;19957;-64
2023/03/13 05:26:18;;;;;;;;;;;21.20;78.70;;;;;;5111125;28;19919;-64
2023/03/13 05:28:44;;;;;;;;;;;21.20;78.40;;;;;;5113973;28;19908;-63
2023/03/13 05:31:09;;;;;;;;;;;21.30;78.70;;;;;;5114053;28;20397;-64
2023/03/13 05:33:35;;;;;;;;;;;21.30;78.70;;;;;;5110273;28;19998;-65
2023/03/13 05:36:00;;;;;;;;;;;21.30;78.20;;;;;;5108083;28;19920;-65
2023/03/13 05:38:25;;;;;;;;;;;21.30;77.00;;;;;;5112064;28;20373;-64
2023/03/13 05:40:51;;;;;;;;;;;21.10;75.40;;;;;;5114075;28;19942;-64
2023/03/13 05:43:16;;;;;;;;;;;21.20;77.80;;;;;;5113050;28;19923;-64
2023/03/13 05:45:42;;;;;;;;;;;21.20;78.50;;;;;;5113096;28;19954;-64
2023/03/13 05:48:07;;;;;;;;;;;21.20;78.50;;;;;;5111338;28;20563;-64
2023/03/13 05:50:33;;;;;;;;;;;21.20;78.50;;;;;;5110017;28;19957;-68
2023/03/13 05:52:58;;;;;;;;;;;21.20;78.30;;;;;;5110869;28;19919;-68
2023/03/13 05:55:24;;;;;;;;;;;21.30;78.50;;;;;;5121966;28;20374;-64
2023/03/13 05:57:49;;;;;;;;;;;21.30;78.60;;;;;;5120663;28;20247;-63
2023/03/13 06:00:15;;;;;;;;;;;21.30;78.70;;;;;;5124455;28;19915;-64
2023/03/13 06:02:42;;;;;;;;;;;21.30;78.60;;;;;;5125663;28;19912;-65
2023/03/13 06:05:07;;;;;;;;;;;21.30;78.50;;;;;;5123930;28;19945;-65
2023/03/13 06:07:33;;;;;;;;;;;21.30;78.50;;;;;;5113760;28;20387;-64
2023/03/13 06:09:58;;;;;;;;;;;21.40;78.40;;;;;;5114676;28;19908;-63
2023/03/13 06:12:23;;;;;;;;;;;21.40;78.50;;;;;;5105929;28;19915;-64
2023/03/13 06:14:49;;;;;;;;;;;21.40;76.20;;;;;;5113619;28;19907;-64
2023/03/13 06:17:14;;;;;;;;;;;21.40;78.10;;;;;;5111779;28;20370;-65
2023/03/13 06:19:40;;;;;;;;;;;21.40;76.80;;;;;;5113938;28;20006;-64
2023/03/13 06:22:05;;;;;;;;;;;21.50;77.80;;;;;;5116210;28;19907;-65
2023/03/13 06:24:31;;;;;;;;;;;21.50;77.90;;;;;;5116195;28;19916;-67
2023/03/13 06:26:56;;;;;;;;;;;21.50;77.80;;;;;;5117218;28;19980;-64
2023/03/13 06:29:23;;;;;;;;;;;21.50;77.90;;;;;;5115297;27;19912;-64
2023/03/13 06:31:49;;;;;;;;;;;21.50;77.80;;;;;;5117133;28;19915;-65
2023/03/13 06:34:14;;;;;;;;;;;21.50;78.10;;;;;;5116126;28;19956;-66
2023/03/13 06:36:40;;;;;;;;;;;21.50;78.00;;;;;;5099122;28;20000;-65
2023/03/13 06:39:06;;;;;;;;;;;21.40;78.30;;;;;;5115300;28;19919;-66
2023/03/13 06:41:32;;;;;;;;;;;21.40;78.50;;;;;;5098306;28;20255;-67
2023/03/13 06:43:57;;;;;;;;;;;21.40;78.40;;;;;;5098019;28;20041;-67
2023/03/13 06:46:23;;;;;;;;;;;21.40;78.70;;;;;;5116959;28;19955;-66
2023/03/13 06:48:49;;;;;;;;;;;21.30;78.70;;;;;;5115318;28;20308;-67
2023/03/13 06:51:16;;;;;;;;;;;21.30;78.80;;;;;;5116600;28;19908;-67
2023/03/13 06:53:41;;;;;;;;;;;21.30;79.00;;;;;;5114538;28;19918;-70
2023/03/13 06:56:07;;;;;;;;;;;21.30;78.80;;;;;;5115839;28;20002;-66
2023/03/13 06:58:33;;;;;;;;;;;21.40;78.80;;;;;;5114442;28;20408;-69
2023/03/13 07:00:59;;;;;;;;;;;21.40;78.80;;;;;;5115479;28;19912;-68
2023/03/13 07:03:25;;;;;;;;;;;21.50;78.60;;;;;;5122701;27;19916;-65
2023/03/13 07:05:59;;;;;;;;;;;21.50;78.70;;;;;;5115602;28;20006;-66
2023/03/13 07:08:25;;;;;;;;;;;21.50;78.60;;;;;;5114135;28;19911;-69
2023/03/13 07:10:51;;;;;;;;;;;21.60;78.40;;;;;;5115924;28;20430;-69
2023/03/13 07:13:18;;;;;;;;;;;21.60;78.30;;;;;;5094120;28;20779;-64
2023/03/13 07:15:44;;;;;;;;;;;21.70;77.90;;;;;;5112121;28;19914;-64
2023/03/13 07:18:10;;;;;;;;;;;21.70;78.20;;;;;;5114317;28;19912;-64
2023/03/13 07:20:35;;;;;;;;;;;21.70;78.00;;;;;;5116280;28;19907;-64
2023/03/13 07:23:00;;;;;;;;;;;21.60;78.10;;;;;;5115137;28;19996;-63
2023/03/13 07:25:26;;;;;;;;;;;21.60;78.10;;;;;;5116104;28;19927;-65
2023/03/13 07:27:52;;;;;;;;;;;21.60;78.40;;;;;;5115078;28;19918;-65
2023/03/13 07:30:18;;;;;;;;;;;21.50;78.50;;;;;;5115713;28;19908;-66
2023/03/13 07:32:43;;;;;;;;;;;21.50;78.80;;;;;;5097155;28;20003;-64
2023/03/13 07:35:09;;;;;;;;;;;21.40;78.80;;;;;;5115647;28;19914;-69
2023/03/13 07:37:34;;;;;;;;;;;21.40;79.00;;;;;;5096470;28;19919;-64
2023/03/13 07:40:00;;;;;;;;;;;21.40;78.90;;;;;;5114638;28;19912;-66
2023/03/13 07:42:25;;;;;;;;;;;21.40;79.00;;;;;;5114806;28;19918;-68
2023/03/13 07:44:52;;;;;;;;;;;21.40;78.90;;;;;;5097487;28;20020;-67
2023/03/13 07:47:17;;;;;;;;;;;21.50;78.80;;;;;;5096587;28;20423;-66
2023/03/13 07:49:45;;;;;;;;;;;21.50;78.90;;;;;;5112388;28;19912;-66
2023/03/13 07:52:10;;;;;;;;;;;21.50;78.80;;;;;;5115256;28;20274;-70
2023/03/13 07:54:36;;;;;;;;;;;21.60;78.80;;;;;;5114121;28;19912;-64
2023/03/13 07:57:02;;;;;;;;;;;21.60;78.70;;;;;;5115162;28;19961;-64
2023/03/13 07:59:27;;;;;;;;;;;21.60;78.70;;;;;;5094336;28;20321;-70
2023/03/13 08:01:53;;;;;;;;;;;21.60;78.60;;;;;;5121073;27;19911;-65
2023/03/13 08:04:18;;;;;;;;;;;21.60;76.60;;;;;;5113322;28;19923;-62
2023/03/13 08:06:44;;;;;;;;;;;21.60;78.30;;;;;;5096318;28;20315;-66
2023/03/13 08:09:10;;;;;;;;;;;21.60;77.50;;;;;;5098269;28;19912;-63
2023/03/13 08:11:36;;;;;;;;;;;21.60;78.40;;;;;;5112809;28;19919;-65
2023/03/13 08:14:02;;;;;;;;;;;21.60;78.50;;;;;;5113298;28;19920;-62
2023/03/13 08:16:29;;;;;;;;;;;21.60;78.60;;;;;;5113268;28;19912;-62
2023/03/13 08:18:57;;;;;;;;;;;21.50;78.70;;;;;;5110305;28;19956;-62
2023/03/13 08:21:27;;;;;;;;;;;21.50;78.70;;;;;;5115046;28;19907;-63
2023/03/13 08:23:56;;;;;;;;;;;21.50;78.80;;;;;;5096105;28;19916;-62
2023/03/13 08:26:24;;;;;;;;;;;21.50;78.70;;;;;;5114791;28;19945;-60
2023/03/13 08:28:54;;;;;;;;;;;21.60;79.00;;;;;;5112570;28;19912;-61
2023/03/13 08:31:21;;;;;;;;;;;21.60;78.70;;;;;;5114791;28;20420;-60
2023/03/13 08:33:47;;;;;;;;;;;21.60;78.70;;;;;;5112573;28;19960;-62
2023/03/13 08:36:14;;;;;;;;;;;21.70;78.60;;;;;;5112331;28;20013;-63
2023/03/13 08:38:41;;;;;;;;;;;21.80;78.50;;;;;;5114939;28;20362;-62
2023/03/13 08:41:07;;;;;;;;;;;21.80;78.40;;;;;;5112817;28;19926;-66
2023/03/13 08:43:33;;;;;;;;;;;21.80;78.50;;;;;;5112143;28;20393;-63
2023/03/13 08:45:58;;;;;;;;;;;21.70;78.60;;;;;;5113534;28;19920;-64
2023/03/13 08:48:24;;;;;;;;;;;21.70;78.90;;;;;;5108976;28;19916;-63
2023/03/13 08:51:19;;;;;;;;;;;21.50;78.10;;;;;;5112120;28;19919;-64
2023/03/13 08:53:45;;;;;;;;;;;21.50;79.20;;;;;;5082059;28;20385;-62
2023/03/13 08:56:11;;;;;;;;;;;21.40;79.20;;;;;;5094095;28;19924;-64
2023/03/13 08:58:37;;;;;;;;;;;21.40;79.20;;;;;;5112377;28;20393;-64
2023/03/13 09:01:03;;;;;;;;;;;21.20;76.30;;;;;;5114273;28;19908;-63
2023/03/13 09:03:29;;;;;;;;;;;21.20;79.10;;;;;;5130130;27;19907;-57
2023/03/13 09:05:59;;;;;;;;;;;21.30;79.20;;;;;;5114355;28;19914;-62
2023/03/13 09:08:24;;;;;;;;;;;21.50;78.90;;;;;;5114763;28;19904;-62
2023/03/13 09:11:03;;;;;;;;;;;21.60;78.50;;;;;;5114572;28;19947;-62
2023/03/13 09:13:30;;;;;;;;;;;21.80;78.30;;;;;;5113873;28;19903;-62
2023/03/13 09:15:56;;;;;;;;;;;21.90;77.80;;;;;;5114240;28;19904;-62
2023/03/13 09:18:22;;;;;;;;;;;22.00;77.70;;;;;;5114416;28;19904;-66
2023/03/13 09:20:47;;;;;;;;;;;22.00;77.60;;;;;;5114098;28;19907;-65
2023/03/13 09:23:13;;;;;;;;;;;22.00;77.60;;;;;;5114006;28;20345;-62
2023/03/13 09:25:38;;;;;;;;;;;21.90;77.60;;;;;;5114392;28;19931;-64
2023/03/13 09:28:03;;;;;;;;;;;21.80;77.90;;;;;;5095922;28;19924;-63
2023/03/13 09:30:29;;;;;;;;;;;21.80;78.30;;;;;;5114305;28;19911;-64
2023/03/13 09:32:54;;;;;;;;;;;21.70;78.40;;;;;;5095469;28;19961;-65
2023/03/13 09:35:20;;;;;;;;;;;21.60;78.80;;;;;;5094768;28;19904;-65
2023/03/13 09:37:45;;;;;;;;;;;21.50;79.00;;;;;;5114300;28;19914;-62
2023/03/13 09:40:16;;;;;;;;;;;21.50;79.20;;;;;;5112768;28;19904;-62
2023/03/13 09:42:52;;;;;;;;;;;21.50;79.30;;;;;;5112451;28;20378;-64
2023/03/13 09:45:26;;;;;;;;;;;21.60;79.10;;;;;;5094024;28;19952;-65
2023/03/13 09:47:53;;;;;;;;;;;21.80;78.90;;;;;;5113030;28;19947;-62
2023/03/13 09:50:22;;;;;;;;;;;22.00;78.40;;;;;;5112898;28;19908;-64
2023/03/13 09:52:50;;;;;;;;;;;22.10;78.20;;;;;;5115404;28;19934;-66
2023/03/13 09:55:29;;;;;;;;;;;22.10;78.20;;;;;;5116584;28;20354;-63
2023/03/13 09:57:54;;;;;;;;;;;22.10;78.10;;;;;;5098453;28;19907;-66
2023/03/13 10:00:20;;;;;;;;;;;22.00;78.30;;;;;;5098935;28;19915;-66
2023/03/13 10:02:51;;;;;;;;;;;22.00;78.50;;;;;;5116681;27;19955;-63
2023/03/13 10:05:19;;;;;;;;;;;21.90;78.80;;;;;;5115140;28;20006;-63
2023/03/13 10:07:45;;;;;;;;;;;21.80;79.00;;;;;;5105913;28;19911;-62
2023/03/13 10:10:16;;;;;;;;;;;21.70;79.20;;;;;;5115978;28;19908;-66
2023/03/13 10:12:46;;;;;;;;;;;21.60;79.50;;;;;;5117441;28;19904;-64
2023/03/13 10:15:17;;;;;;;;;;;21.40;79.70;;;;;;5114640;28;20006;-68
2023/03/13 10:17:42;;;;;;;;;;;21.40;77.70;;;;;;5115341;28;19912;-70
2023/03/13 10:20:21;;;;;;;;;;;21.20;79.40;;;;;;5098613;28;19919;-63
2023/03/13 10:22:47;;;;;;;;;;;21.20;80.00;;;;;;5116683;28;19920;-63
2023/03/13 10:25:32;;;;;;;;;;;21.20;80.20;;;;;;5116574;28;19920;-61
2023/03/13 10:27:58;;;;;;;;;;;21.20;80.10;;;;;;5117179;28;19912;-63
2023/03/13 10:30:25;;;;;;;;;;;21.20;80.10;;;;;;5095866;28;19937;-72
2023/03/13 10:33:10;;;;;;;;;;;21.40;80.00;;;;;;5115636;28;19965;-66
2023/03/13 10:35:37;;;;;;;;;;;21.50;79.90;;;;;;5114349;28;19912;-65
2023/03/13 10:38:04;;;;;;;;;;;21.60;79.40;;;;;;5117170;28;19945;-65
2023/03/13 10:40:30;;;;;;;;;;;21.70;79.10;;;;;;5097939;28;20268;-66
2023/03/13 10:43:14;;;;;;;;;;;21.80;78.80;;;;;;5115484;28;19923;-68
2023/03/13 10:45:40;;;;;;;;;;;21.90;78.70;;;;;;5113694;28;19916;-62
2023/03/13 10:48:14;;;;;;;;;;;21.90;78.70;;;;;;5116411;28;20006;-62
2023/03/13 10:50:44;;;;;;;;;;;22.00;78.70;;;;;;5116376;28;19915;-65
2023/03/13 10:53:21;;;;;;;;;;;21.90;78.60;;;;;;5112804;28;19919;-62
2023/03/13 10:55:47;;;;;;;;;;;21.90;78.80;;;;;;5114827;28;19922;-64
2023/03/13 10:58:31;;;;;;;;;;;21.80;79.00;;;;;;5097894;28;20002;-62
2023/03/13 11:01:32;;;;;;;;;;;21.80;79.30;;;;;;5114736;28;19916;-63
2023/03/13 11:03:59;;;;;;;;;;;21.60;79.40;;;;;;5032189;28;20059;-64
2023/03/13 11:06:24;;;;;;;;;;;21.60;79.50;;;;;;5083889;28;19919;-62
2023/03/13 11:08:57;;;;;;;;;;;21.60;79.60;;;;;;5093807;28;19911;-65
2023/03/13 11:11:26;;;;;;;;;;;21.60;79.80;;;;;;5111598;28;19911;-62
2023/03/13 11:13:51;;;;;;;;;;;21.60;79.80;;;;;;5116387;28;20338;-63
2023/03/13 11:16:17;;;;;;;;;;;21.70;79.50;;;;;;5113859;28;19918;-62
2023/03/13 11:18:43;;;;;;;;;;;21.90;79.20;;;;;;5114324;28;20320;-63
2023/03/13 11:21:14;;;;;;;;;;;22.00;78.90;;;;;;5113890;28;19912;-62
2023/03/13 11:23:41;;;;;;;;;;;22.20;78.40;;;;;;5113146;28;19916;-62
2023/03/13 11:26:28;;;;;;;;;;;22.30;78.30;;;;;;5116002;28;19919;-63
2023/03/13 11:29:00;;;;;;;;;;;22.30;78.20;;;;;;5115256;28;19915;-59
2023/03/13 11:31:32;;;;;;;;;;;22.30;78.10;;;;;;5096441;28;19911;-64
2023/03/13 11:34:00;;;;;;;;;;;22.20;78.30;;;;;;5116469;28;19919;-64
2023/03/13 11:36:32;;;;;;;;;;;22.10;78.50;;;;;;5096277;28;20416;-65
2023/03/13 11:39:05;;;;;;;;;;;22.00;78.80;;;;;;5115816;28;19912;-65
2023/03/13 11:41:30;;;;;;;;;;;21.90;79.00;;;;;;5114403;28;19946;-62
2023/03/13 11:44:02;;;;;;;;;;;21.80;79.10;;;;;;5112342;27;19935;-62
2023/03/13 11:46:32;;;;;;;;;;;21.60;79.50;;;;;;5097258;28;19926;-65
2023/03/13 11:49:36;;;;;;;;;;;21.60;79.60;;;;;;5096272;28;19919;-64
2023/03/13 11:52:10;;;;;;;;;;;21.50;79.90;;;;;;5052689;28;19958;-63
2023/03/13 11:54:38;;;;;;;;;;;21.60;79.60;;;;;;5051881;28;19916;-62
2023/03/13 11:57:04;;;;;;;;;;;21.70;79.80;;;;;;5081241;28;19949;-64
2023/03/13 11:59:32;;;;;;;;;;;21.90;78.70;;;;;;5111257;28;19927;-64
2023/03/13 12:02:00;;;;;;;;;;;22.10;78.70;;;;;;5104372;27;19933;-64
2023/03/13 12:04:26;;;;;;;;;;;22.40;78.10;;;;;;5117276;27;19918;-63
2023/03/13 12:06:55;;;;;;;;;;;22.40;77.60;;;;;;5135877;27;19911;-61
2023/03/13 12:09:30;;;;;;;;;;;22.40;77.80;;;;;;5117250;27;19907;-61
2023/03/13 12:12:14;;;;;;;;;;;22.30;77.70;;;;;;5135744;27;19908;-61
2023/03/13 12:14:43;;;;;;;;;;;22.20;77.70;;;;;;5135559;27;19960;-61
2023/03/13 12:17:11;;;;;;;;;;;22.10;78.20;;;;;;5135462;27;19914;-61
2023/03/13 12:19:41;;;;;;;;;;;22.00;78.40;;;;;;5135395;27;20034;-61
2023/03/13 12:22:12;;;;;;;;;;;21.90;78.60;;;;;;5098842;28;20262;-61
2023/03/13 12:24:40;;;;;;;;;;;21.70;79.00;;;;;;5100090;28;19922;-61
2023/03/13 12:27:14;;;;;;;;;;;21.50;76.40;;;;;;5114500;28;19911;-61
2023/03/13 12:30:09;;;;;;;;;;;21.40;78.80;;;;;;5115882;27;19912;-61
2023/03/13 12:32:52;;;;;;;;;;;21.40;79.20;;;;;;5094303;28;20039;-62
2023/03/13 12:35:36;;;;;;;;;;;21.40;79.50;;;;;;5112939;28;19908;-62
2023/03/13 12:38:02;;;;;;;;;;;21.50;79.30;;;;;;5113820;27;19919;-62
2023/03/13 12:40:42;;;;;;;;;;;21.60;79.00;;;;;;5110071;28;19916;-61
2023/03/13 12:43:27;;;;;;;;;;;21.80;78.40;;;;;;5112592;28;19915;-62
2023/03/13 12:45:57;;;;;;;;;;;22.10;77.70;;;;;;5111796;28;20324;-62
2023/03/13 12:48:22;;;;;;;;;;;22.40;77.30;;;;;;5096007;28;19937;-62
2023/03/13 12:50:48;;;;;;;;;;;22.40;77.00;;;;;;5111176;28;19912;-58
2023/03/13 12:53:23;;;;;;;;;;;22.30;76.80;;;;;;5111114;28;19923;-56
2023/03/13 12:56:06;;;;;;;;;;;22.30;77.20;;;;;;5114193;28;19911;-60
2023/03/13 12:58:48;;;;;;;;;;;22.20;77.50;;;;;;5114242;28;19908;-62
2023/03/13 13:01:33;;;;;;;;;;;22.10;77.80;;;;;;5097548;27;20432;-62
2023/03/13 13:04:03;;;;;;;;;;;21.90;78.20;;;;;;5133955;27;19964;-62
2023/03/13 13:06:48;;;;;;;;;;;21.80;78.50;;;;;;5134723;28;20384;-62
2023/03/13 13:09:17;;;;;;;;;;;21.70;78.70;;;;;;5132154;28;19907;-64
2023/03/13 13:11:44;;;;;;;;;;;21.60;79.00;;;;;;5114636;28;20032;-64
2023/03/13 13:14:15;;;;;;;;;;;21.50;79.20;;;;;;5114249;28;19908;-60
2023/03/13 13:16:42;;;;;;;;;;;21.50;79.60;;;;;;5114282;28;19978;-64
2023/03/13 13:19:22;;;;;;;;;;;21.50;79.70;;;;;;5114542;28;19912;-62
2023/03/13 13:22:06;;;;;;;;;;;21.50;80.00;;;;;;5096072;28;19912;-62
2023/03/13 13:24:39;;;;;;;;;;;21.60;79.70;;;;;;5114178;28;19912;-61
2023/03/13 13:27:24;;;;;;;;;;;21.80;79.40;;;;;;5114874;28;19916;-63
2023/03/13 13:29:54;;;;;;;;;;;22.10;78.80;;;;;;5118265;28;19994;-62
2023/03/13 13:32:27;;;;;;;;;;;22.40;78.10;;;;;;5118436;28;20194;-63
2023/03/13 13:34:54;;;;;;;;;;;22.40;77.70;;;;;;5100016;28;19911;-63
2023/03/13 13:37:19;;;;;;;;;;;22.40;77.70;;;;;;5118304;28;20194;-67
2023/03/13 13:39:52;;;;;;;;;;;22.30;78.10;;;;;;5118584;28;19999;-65
2023/03/13 13:42:29;;;;;;;;;;;22.30;78.50;;;;;;5116844;28;19928;-73
2023/03/13 13:45:01;;;;;;;;;;;22.10;78.30;;;;;;5118615;27;19955;-67
2023/03/13 13:47:28;;;;;;;;;;;22.00;78.50;;;;;;5116728;28;20036;-65
2023/03/13 13:50:00;;;;;;;;;;;22.00;79.10;;;;;;5116908;28;19912;-64
2023/03/13 13:52:31;;;;;;;;;;;21.90;79.00;;;;;;5099093;28;19908;-65
2023/03/13 13:54:57;;;;;;;;;;;21.70;79.20;;;;;;5097264;28;19915;-62
2023/03/13 13:57:25;;;;;;;;;;;21.70;79.60;;;;;;5104893;28;20266;-62
2023/03/13 13:59:52;;;;;;;;;;;21.60;79.70;;;;;;5116715;28;19947;-63
2023/03/13 14:02:29;;;;;;;;;;;21.60;79.80;;;;;;5096456;28;19958;-65
2023/03/13 14:04:59;;;;;;;;;;;21.60;80.00;;;;;;5116403;28;19969;-66
2023/03/13 14:07:31;;;;;;;;;;;21.70;79.80;;;;;;5117750;28;19953;-65
2023/03/13 14:09:59;;;;;;;;;;;22.00;79.30;;;;;;5114253;28;19912;-69
2023/03/13 14:12:30;;;;;;;;;;;22.20;78.90;;;;;;5113795;28;19912;-66
2023/03/13 14:15:14;;;;;;;;;;;22.40;78.40;;;;;;5117132;28;20138;-64
2023/03/13 14:17:44;;;;;;;;;;;22.40;78.10;;;;;;5116009;28;19912;-66
2023/03/13 14:20:19;;;;;;;;;;;22.40;78.20;;;;;;5096580;28;19915;-66
2023/03/13 14:22:45;;;;;;;;;;;22.30;78.30;;;;;;5078458;28;20024;-67